18 Apr 2019 14:19 UTC 2019108+14:19 UTC

Overview Datums Bench Marks Data Query Site Visit Daily QC Messages Attributes

042: Nueces Delta 2

27° 53' 19" N   97° 34' 10" W
NUDE2
The Coastal Bend Bays & Estuaries Program Coastal Bend Bays and Estuaries Program

Station Information

Nueces Delta 2
Nueces Delta 2
more pictures
 
Station Name:Nueces Delta 2
DNR ID:042
Location:27° 53' 19" N, 97° 34' 10" W

Water Level Forecasts

Latest Observations

Series Metric English Marine Observed at
Water Temperature 21.4 °C 70.5 °F 70.5 °F Apr 18 09:06 CDT
00h07m ago
Salinity 16.700 psu 16.700 psu 16.700 psu Apr 18 09:06 CDT
00h07m ago

Maps

Nueces Delta 2
All Stations in Area
Entire Network
 

Recent Observations

Date/Time Water
Temp (°F)
Sal (psu)
Apr 18 09:00 CDT 70.3 16.700
Apr 18 08:00 CDT 70.5 16.600
Apr 18 07:00 CDT 72.0 16.600
Apr 18 06:00 CDT 73.2 16.600
Apr 18 05:00 CDT 73.4 16.600
Apr 18 04:00 CDT 74.5 15.200
Apr 18 03:00 CDT 74.7 16.400
Apr 18 02:00 CDT 74.8 16.200
Apr 18 01:00 CDT 75.2 16.500
Apr 18 00:00 CDT 75.7 16.800
Apr 17 23:00 CDT 76.1 17.200
Apr 17 22:00 CDT 76.1 17.600
Apr 17 21:00 CDT 76.5 17.600
Apr 17 20:00 CDT 76.6 17.500
Apr 17 19:00 CDT 77.0 17.400
Apr 17 18:00 CDT 77.4 17.200
Apr 17 17:00 CDT 77.7 17.500
Apr 17 16:00 CDT 77.4 17.400
Apr 17 15:00 CDT 76.5 17.600
Apr 17 14:00 CDT 75.7 17.000
Apr 17 13:00 CDT 74.7 17.100
Apr 17 12:00 CDT 74.3 17.100
Apr 17 11:00 CDT 73.8 17.000
Apr 17 10:00 CDT 73.4 17.000
Apr 17 09:00 CDT 73.2 17.100

Historical Data Availability